createdAt,value
2022-08-31T00:00:58.895Z,99945.69
2022-08-31T00:03:45.516Z,99947.37
2022-08-31T00:06:13.145Z,99949.19
2022-08-31T00:08:59.485Z,99950.00
2022-08-31T00:11:30.969Z,99947.44
2022-08-31T00:14:00.549Z,99951.81
2022-08-31T00:16:30.464Z,99950.91
2022-08-31T00:18:57.931Z,99952.66
2022-08-31T00:21:27.096Z,99948.97
2022-08-31T00:23:55.559Z,99951.44
2022-08-31T00:26:23.680Z,99949.88
2022-08-31T00:28:51.826Z,99951.81
2022-08-31T00:31:19.934Z,99960.53
2022-08-31T00:33:52.489Z,99954.47
2022-08-31T00:36:23.356Z,99953.59
2022-08-31T00:38:52.182Z,99951.72
2022-08-31T00:41:25.400Z,99951.78
2022-08-31T00:43:54.427Z,99954.41
2022-08-31T00:46:25.407Z,99952.63
2022-08-31T00:48:58.265Z,99949.09
2022-08-31T00:51:28.555Z,99966.72
2022-08-31T00:53:56.223Z,99962.22
2022-08-31T00:56:24.093Z,99964.09
2022-08-31T00:58:54.887Z,99958.62
2022-08-31T01:01:22.952Z,99970.87
2022-08-31T01:03:50.512Z,99968.28
2022-08-31T01:06:18.979Z,99955.25
2022-08-31T01:08:47.044Z,99969.28
2022-08-31T01:11:15.011Z,99963.22
2022-08-31T01:13:45.017Z,99971.13
2022-08-31T01:16:20.438Z,99967.47
2022-08-31T01:18:48.448Z,99958.78
2022-08-31T01:21:27.299Z,99965.81
2022-08-31T01:23:58.141Z,99966.69
2022-08-31T01:26:27.710Z,99972.78
2022-08-31T01:28:58.550Z,99965.69
2022-08-31T01:31:31.306Z,99983.03
2022-08-31T01:33:59.259Z,99984.47
2022-08-31T01:36:27.392Z,99984.88
2022-08-31T01:38:56.829Z,99985.78
2022-08-31T01:41:24.523Z,99982.53
2022-08-31T01:43:53.175Z,99968.19
2022-08-31T01:46:20.967Z,99963.81
2022-08-31T01:48:49.381Z,99976.16
2022-08-31T01:51:19.337Z,99975.91
2022-08-31T01:53:48.918Z,99973.50
2022-08-31T01:56:29.198Z,99982.81
2022-08-31T01:58:57.593Z,99963.69
2022-08-31T02:01:33.237Z,99977.50
2022-08-31T02:04:03.881Z,99980.72
2022-08-31T02:06:32.517Z,99984.22
2022-08-31T02:09:01.216Z,99981.66
2022-08-31T02:11:29.222Z,99978.44
2022-08-31T02:13:57.106Z,99977.38
2022-08-31T02:16:25.035Z,99984.44
2022-08-31T02:18:52.934Z,99973.25
2022-08-31T02:21:20.437Z,99974.00
2022-08-31T02:23:48.266Z,99975.03
2022-08-31T02:26:15.996Z,99963.59
2022-08-31T02:28:44.712Z,99966.12
2022-08-31T02:31:12.828Z,99953.81
2022-08-31T02:33:44.173Z,99960.53
2022-08-31T02:36:11.999Z,99967.88
2022-08-31T02:38:39.595Z,99959.44
2022-08-31T02:41:07.835Z,99967.19
2022-08-31T02:43:35.640Z,99974.31
2022-08-31T02:46:03.118Z,99972.41
2022-08-31T02:48:33.197Z,99970.72
2022-08-31T02:51:08.244Z,99960.78
2022-08-31T02:53:36.668Z,99964.09
2022-08-31T02:56:05.370Z,99965.00
2022-08-31T02:58:33.152Z,99962.59
2022-08-31T03:01:00.886Z,99970.56
2022-08-31T03:03:28.635Z,99964.41
2022-08-31T03:05:56.143Z,99961.97
2022-08-31T03:08:24.389Z,99963.19
2022-08-31T03:10:52.152Z,99968.53
2022-08-31T03:13:19.980Z,99963.44
2022-08-31T03:15:48.339Z,99969.59
2022-08-31T03:18:16.790Z,99968.06
2022-08-31T03:20:44.229Z,99965.84
2022-08-31T03:23:12.406Z,99969.13
2022-08-31T03:25:39.986Z,99966.16
2022-08-31T03:28:08.562Z,99967.69
2022-08-31T03:30:37.065Z,99968.41
2022-08-31T03:33:06.341Z,99976.56
2022-08-31T03:35:34.743Z,99975.00
2022-08-31T03:38:03.393Z,99972.84
2022-08-31T03:40:31.011Z,99981.81
2022-08-31T03:42:58.949Z,99973.62
2022-08-31T03:45:27.904Z,99973.66
2022-08-31T03:47:55.498Z,99975.12
2022-08-31T03:50:24.277Z,99977.84
2022-08-31T03:52:54.228Z,99970.91
2022-08-31T03:55:23.138Z,99968.25
2022-08-31T03:57:51.523Z,99961.38
2022-08-31T04:00:19.338Z,99965.28
2022-08-31T04:02:47.618Z,99965.97
2022-08-31T04:05:21.415Z,99960.34
2022-08-31T04:08:00.821Z,99972.38
2022-08-31T04:10:32.481Z,99974.53
2022-08-31T04:13:06.324Z,99978.87
2022-08-31T04:15:34.354Z,99973.13
2022-08-31T04:18:04.876Z,99976.69
2022-08-31T04:20:37.397Z,99981.50
2022-08-31T04:23:05.208Z,99983.16
2022-08-31T04:25:37.975Z,99975.69
2022-08-31T04:28:06.124Z,99978.91
2022-08-31T04:30:33.673Z,99984.63
2022-08-31T04:33:02.227Z,99977.75
2022-08-31T04:35:30.073Z,99970.97
2022-08-31T04:37:57.659Z,99973.84
2022-08-31T04:40:25.496Z,99971.75
2022-08-31T04:42:54.354Z,99976.25
2022-08-31T04:45:22.339Z,99976.38
2022-08-31T04:47:50.302Z,99974.03
2022-08-31T04:50:18.178Z,99981.16
2022-08-31T04:53:03.951Z,99987.22
2022-08-31T04:55:33.017Z,99990.53
2022-08-31T04:58:00.646Z,99985.63
2022-08-31T05:00:28.423Z,99980.97
2022-08-31T05:02:57.970Z,99976.53
2022-08-31T05:05:25.712Z,99982.69
2022-08-31T05:07:53.244Z,99982.47
2022-08-31T05:10:21.755Z,99975.69
2022-08-31T05:12:51.827Z,99985.50
2022-08-31T05:15:20.555Z,99987.81
2022-08-31T05:17:48.748Z,99983.38
2022-08-31T05:20:16.455Z,99985.28
2022-08-31T05:22:43.886Z,99989.75
2022-08-31T05:25:11.753Z,99994.19
2022-08-31T05:27:42.152Z,99983.13
2022-08-31T05:30:10.431Z,99981.47
2022-08-31T05:32:41.310Z,99983.34
2022-08-31T05:35:10.356Z,99991.31
2022-08-31T05:37:39.324Z,99994.75
2022-08-31T05:40:08.497Z,99993.91
2022-08-31T05:42:36.532Z,99991.28
2022-08-31T05:45:04.551Z,99988.75
2022-08-31T05:47:32.204Z,99985.25
2022-08-31T05:49:59.762Z,99987.00
2022-08-31T05:52:28.523Z,99986.13
2022-08-31T05:54:56.336Z,99983.50
2022-08-31T05:57:26.673Z,99987.91
2022-08-31T05:59:55.496Z,99987.88
2022-08-31T06:02:29.455Z,99983.47
2022-08-31T06:05:00.449Z,99979.94
2022-08-31T06:07:27.960Z,99987.00
2022-08-31T06:09:56.042Z,99988.66
2022-08-31T06:12:26.023Z,99994.06
2022-08-31T06:14:55.578Z,99996.69
2022-08-31T06:17:24.530Z,99998.41
2022-08-31T06:19:52.465Z,99992.28
2022-08-31T06:22:20.268Z,100003.69
2022-08-31T06:24:48.230Z,100001.81
2022-08-31T06:27:16.605Z,99998.22
2022-08-31T06:29:45.144Z,99996.47
2022-08-31T06:32:14.006Z,99998.97
2022-08-31T06:34:42.822Z,99998.16
2022-08-31T06:37:19.004Z,100004.47
2022-08-31T06:39:47.773Z,100000.84
2022-08-31T06:42:15.322Z,100001.72
2022-08-31T06:44:45.656Z,99998.22
2022-08-31T06:47:15.479Z,100004.31
2022-08-31T06:49:43.157Z,99996.34
2022-08-31T06:52:10.755Z,99999.75
2022-08-31T06:54:38.782Z,99995.63
2022-08-31T06:57:07.440Z,99996.31
2022-08-31T06:59:35.298Z,100007.81
2022-08-31T07:02:04.711Z,100010.19
2022-08-31T07:04:35.331Z,100015.44
2022-08-31T07:07:05.156Z,100017.25
2022-08-31T07:09:33.651Z,100010.13
2022-08-31T07:12:01.446Z,100020.66
2022-08-31T07:14:29.445Z,100020.66
2022-08-31T07:16:58.681Z,100009.63
2022-08-31T07:19:27.113Z,100021.09
2022-08-31T07:21:58.447Z,100020.31
2022-08-31T07:24:30.482Z,100022.69
2022-08-31T07:27:00.805Z,100028.25
2022-08-31T07:29:31.718Z,100022.41
2022-08-31T07:32:00.083Z,100022.53
2022-08-31T07:34:30.203Z,100015.47
2022-08-31T07:37:19.468Z,100015.31
2022-08-31T07:40:07.768Z,100017.56
2022-08-31T07:42:44.522Z,100019.13
2022-08-31T07:45:29.420Z,100010.88
2022-08-31T07:48:00.563Z,100010.56
2022-08-31T07:50:31.618Z,100000.37
2022-08-31T07:53:00.480Z,99997.00
2022-08-31T07:55:29.389Z,100004.56
2022-08-31T07:57:59.001Z,100000.19
2022-08-31T08:00:28.844Z,100006.25
2022-08-31T08:03:01.794Z,99998.19
2022-08-31T08:05:38.606Z,99999.31
2022-08-31T08:08:13.441Z,100001.56
2022-08-31T08:10:43.677Z,99994.00
2022-08-31T08:13:20.504Z,99984.38
2022-08-31T08:15:50.833Z,99988.41
2022-08-31T08:18:21.086Z,99978.56
2022-08-31T08:20:49.548Z,99975.75
2022-08-31T08:23:25.852Z,99975.59
2022-08-31T08:26:01.443Z,99981.00
2022-08-31T08:28:45.976Z,99976.78
2022-08-31T08:31:17.640Z,99971.28
2022-08-31T08:33:46.001Z,99969.91
2022-08-31T08:36:18.957Z,99966.19
2022-08-31T08:38:50.559Z,99962.16
2022-08-31T08:41:22.281Z,99964.06
2022-08-31T08:43:57.324Z,99967.53
2022-08-31T08:46:38.841Z,99968.41
2022-08-31T08:49:15.096Z,99971.22
2022-08-31T08:51:43.937Z,99968.31
2022-08-31T08:54:15.898Z,99962.50
2022-08-31T08:56:47.810Z,99963.06
2022-08-31T08:59:19.534Z,99949.44
2022-08-31T09:01:50.028Z,99964.25
2022-08-31T09:04:45.433Z,99959.41
2022-08-31T09:07:37.484Z,99955.06
2022-08-31T09:10:17.437Z,99952.31
2022-08-31T09:13:30.237Z,99950.13
2022-08-31T09:16:11.356Z,99954.78
2022-08-31T09:18:54.333Z,99950.22
2022-08-31T09:21:26.012Z,99941.19
2022-08-31T09:24:02.072Z,99944.69
2022-08-31T09:26:46.904Z,99936.03
2022-08-31T09:29:24.682Z,99933.69
2022-08-31T09:32:07.311Z,99919.63
2022-08-31T09:34:42.190Z,99925.66
2022-08-31T09:37:17.213Z,99929.53
2022-08-31T09:39:47.980Z,99920.00
2022-08-31T09:42:32.043Z,99915.88
2022-08-31T09:45:09.661Z,99917.13
2022-08-31T09:47:51.347Z,99917.28
2022-08-31T09:50:32.481Z,99914.25
2022-08-31T09:53:42.803Z,99915.75
2022-08-31T09:56:22.546Z,99913.84
2022-08-31T09:58:53.103Z,99905.47
2022-08-31T10:01:44.980Z,99907.13
2022-08-31T10:04:19.539Z,99899.16
2022-08-31T10:07:09.523Z,99899.91
2022-08-31T10:09:45.023Z,99892.94
2022-08-31T10:12:39.814Z,99889.19
2022-08-31T10:15:20.974Z,99893.47
2022-08-31T10:18:03.310Z,99892.16
2022-08-31T10:20:36.023Z,99887.28
2022-08-31T10:23:19.143Z,99887.09
2022-08-31T10:25:54.673Z,99872.75
2022-08-31T10:28:32.521Z,99876.97
2022-08-31T10:31:07.548Z,99876.00
2022-08-31T10:34:01.299Z,99865.25
2022-08-31T10:36:36.482Z,99861.44
2022-08-31T10:39:11.784Z,99858.94
2022-08-31T10:41:44.306Z,99856.53
2022-08-31T10:44:24.230Z,99861.38
2022-08-31T10:46:54.568Z,99849.78
2022-08-31T10:49:22.370Z,99849.28
2022-08-31T10:51:56.612Z,99854.31
2022-08-31T10:54:39.222Z,99851.78
2022-08-31T10:57:32.255Z,99844.53
2022-08-31T11:00:42.448Z,99831.09
2022-08-31T11:03:42.264Z,99834.28
2022-08-31T11:06:19.143Z,99843.28
2022-08-31T11:09:15.946Z,99832.00
2022-08-31T11:11:51.896Z,99837.19
2022-08-31T11:14:49.878Z,99837.03
2022-08-31T11:17:42.537Z,99832.00
2022-08-31T11:20:34.943Z,99833.19
2022-08-31T11:23:43.051Z,99827.78
2022-08-31T11:26:39.198Z,99825.87
2022-08-31T11:29:13.053Z,99817.59
2022-08-31T11:31:41.553Z,99816.41
2022-08-31T11:34:17.517Z,99814.19
2022-08-31T11:36:55.396Z,99808.88
2022-08-31T11:39:45.530Z,99810.19
2022-08-31T11:42:18.793Z,99803.06
2022-08-31T11:45:00.794Z,99802.97
2022-08-31T11:47:28.088Z,99805.19
2022-08-31T11:50:00.171Z,99797.91
2022-08-31T11:52:32.750Z,99805.19
2022-08-31T11:55:10.029Z,99802.72
2022-08-31T11:58:06.367Z,99799.03
2022-08-31T12:01:06.911Z,99802.66
2022-08-31T12:03:45.964Z,99798.44
2022-08-31T12:06:25.758Z,99802.03
2022-08-31T12:09:02.529Z,99803.66
2022-08-31T12:11:48.424Z,99793.00
2022-08-31T12:14:50.292Z,99794.16
2022-08-31T12:17:34.571Z,99793.97
2022-08-31T12:20:20.068Z,99792.31
2022-08-31T12:23:30.061Z,99785.13
2022-08-31T12:26:01.526Z,99781.91
2022-08-31T12:28:58.353Z,99779.09
2022-08-31T12:31:26.465Z,99782.84
2022-08-31T12:34:05.763Z,99781.78
2022-08-31T12:36:36.982Z,99769.94
2022-08-31T12:39:21.081Z,99770.75
2022-08-31T12:41:57.234Z,99768.41
2022-08-31T12:44:29.407Z,99769.06
2022-08-31T12:46:59.672Z,99771.06
2022-08-31T12:49:55.300Z,99764.37
2022-08-31T12:52:31.829Z,99760.50
2022-08-31T12:55:14.550Z,99759.31
2022-08-31T12:57:48.995Z,99753.66
2022-08-31T13:00:27.283Z,99757.69
2022-08-31T13:02:59.603Z,99752.22
2022-08-31T13:05:27.450Z,99747.50
2022-08-31T13:07:56.173Z,99750.66
2022-08-31T13:10:38.323Z,99749.69
2022-08-31T13:13:08.413Z,99746.53
2022-08-31T13:15:39.939Z,99759.25
2022-08-31T13:18:23.403Z,99756.38
2022-08-31T13:21:02.444Z,99750.91
2022-08-31T13:23:34.893Z,99755.72
2022-08-31T13:26:05.926Z,99750.37
2022-08-31T13:28:35.085Z,99748.44
2022-08-31T13:31:05.579Z,99742.25
2022-08-31T13:33:40.446Z,99744.66
2022-08-31T13:36:32.681Z,99741.94
2022-08-31T13:39:04.155Z,99739.81
2022-08-31T13:41:38.398Z,99745.84
2022-08-31T13:44:09.008Z,99735.22
2022-08-31T13:46:44.321Z,99734.25
2022-08-31T13:49:31.011Z,99735.94
2022-08-31T13:51:59.117Z,99728.91
2022-08-31T13:54:31.605Z,99723.41
2022-08-31T13:57:25.932Z,99717.44
2022-08-31T13:59:53.791Z,99718.09
2022-08-31T14:02:30.844Z,99721.16
2022-08-31T14:05:07.918Z,99720.88
2022-08-31T14:07:36.146Z,99715.41
2022-08-31T14:10:14.234Z,99719.34
2022-08-31T14:12:59.299Z,99717.88
2022-08-31T14:15:36.354Z,99716.34
2022-08-31T14:18:24.448Z,99718.09
2022-08-31T14:21:26.391Z,99714.75
2022-08-31T14:24:01.350Z,99713.78
2022-08-31T14:26:34.993Z,99713.03
2022-08-31T14:29:10.212Z,99714.28
2022-08-31T14:31:43.270Z,99716.72
2022-08-31T14:34:25.542Z,99710.47
2022-08-31T14:37:07.660Z,99710.03
2022-08-31T14:39:41.935Z,99707.03
2022-08-31T14:42:18.775Z,99704.72
2022-08-31T14:44:53.781Z,99706.78
2022-08-31T14:47:24.343Z,99710.47
2022-08-31T14:49:52.248Z,99710.16
2022-08-31T14:52:19.699Z,99709.06
2022-08-31T14:54:47.832Z,99702.81
2022-08-31T14:57:18.475Z,99704.56
2022-08-31T14:59:47.238Z,99698.34
2022-08-31T15:02:21.289Z,99704.09
2022-08-31T15:04:48.989Z,99699.53
2022-08-31T15:07:17.785Z,99700.00
2022-08-31T15:09:46.792Z,99693.63
2022-08-31T15:12:15.668Z,99707.53
2022-08-31T15:14:45.037Z,99694.72
2022-08-31T15:17:19.814Z,99702.19
2022-08-31T15:19:50.399Z,99698.63
2022-08-31T15:22:18.965Z,99696.25
2022-08-31T15:24:46.807Z,99702.25
2022-08-31T15:27:16.515Z,99696.59
2022-08-31T15:29:47.434Z,99692.53
2022-08-31T15:32:17.325Z,99690.94
2022-08-31T15:34:50.140Z,99689.00
2022-08-31T15:37:17.765Z,99688.78
2022-08-31T15:39:49.029Z,99690.19
2022-08-31T15:42:21.533Z,99696.09
2022-08-31T15:44:57.265Z,99696.41
2022-08-31T15:47:56.120Z,99685.72
2022-08-31T15:50:31.888Z,99691.91
2022-08-31T15:53:08.689Z,99683.44
2022-08-31T15:55:40.988Z,99676.53
2022-08-31T15:58:09.831Z,99680.09
2022-08-31T16:00:38.244Z,99679.69
2022-08-31T16:03:06.279Z,99677.25
2022-08-31T16:05:39.584Z,99676.78
2022-08-31T16:08:11.251Z,99674.28
2022-08-31T16:10:45.102Z,99685.31
2022-08-31T16:13:15.833Z,99675.56
2022-08-31T16:15:51.354Z,99688.19
2022-08-31T16:18:21.744Z,99688.81
2022-08-31T16:20:50.558Z,99688.81
2022-08-31T16:23:18.352Z,99685.00
2022-08-31T16:25:49.108Z,99684.00
2022-08-31T16:28:19.415Z,99679.03
2022-08-31T16:30:47.688Z,99680.63
2022-08-31T16:33:15.259Z,99683.72
2022-08-31T16:35:44.708Z,99680.63
2022-08-31T16:38:13.030Z,99681.31
2022-08-31T16:40:41.725Z,99690.78
2022-08-31T16:43:09.890Z,99688.97
2022-08-31T16:45:39.420Z,99689.72
2022-08-31T16:48:29.394Z,99685.28
2022-08-31T16:51:01.903Z,99689.53
2022-08-31T16:53:30.175Z,99684.50
2022-08-31T16:56:00.176Z,99691.06
2022-08-31T16:58:50.502Z,99693.19
2022-08-31T17:01:20.892Z,99700.31
2022-08-31T17:03:54.128Z,99698.22
2022-08-31T17:06:23.943Z,99698.88
2022-08-31T17:09:00.366Z,99700.34
2022-08-31T17:11:32.304Z,99698.69
2022-08-31T17:14:01.464Z,99699.59
2022-08-31T17:16:33.173Z,99701.88
2022-08-31T17:19:02.080Z,99692.72
2022-08-31T17:21:32.144Z,99691.25
2022-08-31T17:24:02.028Z,99692.34
2022-08-31T17:26:32.727Z,99694.91
2022-08-31T17:29:05.685Z,99690.69
2022-08-31T17:31:36.723Z,99696.37
2022-08-31T17:34:04.645Z,99693.06
2022-08-31T17:36:37.302Z,99694.91
2022-08-31T17:39:06.652Z,99705.00
2022-08-31T17:41:36.165Z,99706.63
2022-08-31T17:44:04.368Z,99716.72
2022-08-31T17:46:33.126Z,99720.88
2022-08-31T17:49:01.109Z,99721.94
2022-08-31T17:51:30.904Z,99724.25
2022-08-31T17:54:01.971Z,99727.28
2022-08-31T17:56:48.294Z,99731.16
2022-08-31T17:59:19.010Z,99728.38
2022-08-31T18:01:49.021Z,99751.47
2022-08-31T18:04:17.625Z,99740.19
2022-08-31T18:06:45.647Z,99753.62
2022-08-31T18:09:15.108Z,99744.66
2022-08-31T18:11:46.839Z,99752.31
2022-08-31T18:14:19.088Z,99748.41
2022-08-31T18:16:47.786Z,99754.47
2022-08-31T18:19:16.874Z,99752.13
2022-08-31T18:21:56.274Z,99749.16
2022-08-31T18:24:23.752Z,99747.09
2022-08-31T18:26:52.059Z,99750.37
2022-08-31T18:29:24.327Z,99747.28
2022-08-31T18:31:54.179Z,99752.72
2022-08-31T18:34:23.827Z,99756.94
2022-08-31T18:36:53.765Z,99763.13
2022-08-31T18:39:47.752Z,99760.59
2022-08-31T18:42:32.231Z,99762.94
2022-08-31T18:45:18.957Z,99768.09
2022-08-31T18:48:20.924Z,99768.94
2022-08-31T18:50:44.932Z,99773.56
2022-08-31T18:53:27.426Z,99770.47
2022-08-31T18:56:10.172Z,99775.47
2022-08-31T18:58:38.795Z,99774.34
2022-08-31T19:01:11.594Z,99771.59
2022-08-31T19:03:40.184Z,99772.19
2022-08-31T19:06:08.876Z,99776.06
2022-08-31T19:08:36.575Z,99781.19
2022-08-31T19:11:08.150Z,99776.16
2022-08-31T19:13:35.816Z,99789.09
2022-08-31T19:16:15.225Z,99792.00
2022-08-31T19:18:44.552Z,99785.34
2022-08-31T19:21:18.781Z,99780.56
2022-08-31T19:23:47.544Z,99780.69
2022-08-31T19:26:30.100Z,99779.31
2022-08-31T19:28:58.718Z,99780.34
2022-08-31T19:31:27.742Z,99782.19
2022-08-31T19:33:57.178Z,99792.88
2022-08-31T19:36:27.722Z,99785.28
2022-08-31T19:38:56.586Z,99791.38
2022-08-31T19:41:25.561Z,99785.66
2022-08-31T19:44:05.619Z,99787.66
2022-08-31T19:46:41.031Z,99787.59
2022-08-31T19:49:11.339Z,99784.34
2022-08-31T19:51:45.745Z,99792.72
2022-08-31T19:54:13.972Z,99791.59
2022-08-31T19:56:42.959Z,99794.38
2022-08-31T19:59:12.195Z,99797.09
2022-08-31T20:01:39.866Z,99802.22
2022-08-31T20:04:16.323Z,99801.31
2022-08-31T20:06:45.680Z,99811.88
2022-08-31T20:09:13.812Z,99815.06
2022-08-31T20:11:41.398Z,99811.66
2022-08-31T20:14:08.864Z,99813.00
2022-08-31T20:16:41.738Z,99808.81
2022-08-31T20:19:14.074Z,99817.41
2022-08-31T20:21:42.146Z,99808.53
2022-08-31T20:24:12.946Z,99805.47
2022-08-31T20:26:51.771Z,99813.47
2022-08-31T20:29:20.719Z,99814.50
2022-08-31T20:31:50.404Z,99807.75
2022-08-31T20:34:19.659Z,99804.34
2022-08-31T20:36:50.139Z,99814.69
2022-08-31T20:39:19.141Z,99804.47
2022-08-31T20:41:48.249Z,99802.81
2022-08-31T20:44:21.380Z,99804.53
2022-08-31T20:47:10.837Z,99808.63
2022-08-31T20:49:43.631Z,99804.34
2022-08-31T20:52:13.325Z,99810.53
2022-08-31T20:54:43.099Z,99811.37
2022-08-31T20:57:13.407Z,99810.59
2022-08-31T20:59:41.556Z,99810.44
2022-08-31T21:02:09.629Z,99818.53
2022-08-31T21:04:39.826Z,99820.84
2022-08-31T21:07:11.959Z,99820.59
2022-08-31T21:09:41.214Z,99826.06
2022-08-31T21:12:10.233Z,99827.69
2022-08-31T21:14:40.992Z,99826.81
2022-08-31T21:17:08.448Z,99831.03
2022-08-31T21:19:39.170Z,99832.66
2022-08-31T21:22:09.261Z,99828.59
2022-08-31T21:24:38.317Z,99825.91
2022-08-31T21:27:09.670Z,99823.34
2022-08-31T21:29:38.051Z,99820.69
2022-08-31T21:32:07.766Z,99822.56
2022-08-31T21:34:35.526Z,99830.75
2022-08-31T21:37:03.232Z,99832.31
2022-08-31T21:39:32.423Z,99828.91
2022-08-31T21:41:59.882Z,99830.84
2022-08-31T21:44:28.248Z,99820.78
2022-08-31T21:46:55.850Z,99820.19
2022-08-31T21:49:23.792Z,99819.66
2022-08-31T21:51:54.423Z,99822.28
2022-08-31T21:54:27.249Z,99822.50
2022-08-31T21:56:59.276Z,99827.28
2022-08-31T21:59:29.606Z,99824.63
2022-08-31T22:02:00.363Z,99814.84
2022-08-31T22:04:31.679Z,99821.44
2022-08-31T22:06:59.721Z,99828.91
2022-08-31T22:09:28.996Z,99816.38
2022-08-31T22:11:58.112Z,99812.59
2022-08-31T22:14:32.122Z,99814.34
2022-08-31T22:17:05.529Z,99814.28
2022-08-31T22:19:36.691Z,99814.25
2022-08-31T22:22:07.151Z,99819.81
2022-08-31T22:24:36.272Z,99819.63
2022-08-31T22:27:06.906Z,99825.53
2022-08-31T22:29:35.736Z,99827.34
2022-08-31T22:32:10.066Z,99830.44
2022-08-31T22:34:38.859Z,99835.50
2022-08-31T22:37:25.380Z,99829.22
2022-08-31T22:39:55.320Z,99836.59
2022-08-31T22:42:23.511Z,99839.81
2022-08-31T22:44:51.296Z,99846.81
2022-08-31T22:47:19.380Z,99838.75
2022-08-31T22:49:47.402Z,99854.69
2022-08-31T22:52:17.418Z,99855.53
2022-08-31T22:54:45.802Z,99867.81
2022-08-31T22:57:13.236Z,99870.34
2022-08-31T22:59:42.405Z,99875.91
2022-08-31T23:02:10.225Z,99884.91
2022-08-31T23:04:43.787Z,99888.47
2022-08-31T23:07:16.324Z,99902.56
2022-08-31T23:09:44.371Z,99904.28
2022-08-31T23:12:12.270Z,99905.81
2022-08-31T23:14:42.558Z,99920.88
2022-08-31T23:17:10.611Z,99920.91
2022-08-31T23:19:40.961Z,99918.34
2022-08-31T23:22:11.868Z,99921.88
2022-08-31T23:24:51.303Z,99917.47
2022-08-31T23:27:20.915Z,99928.91
2022-08-31T23:29:52.255Z,99925.41
2022-08-31T23:32:21.588Z,99925.34
2022-08-31T23:34:52.595Z,99913.12
2022-08-31T23:37:23.162Z,99920.13
2022-08-31T23:39:54.423Z,99916.63
2022-08-31T23:42:23.441Z,99914.88
2022-08-31T23:44:51.159Z,99906.09
2022-08-31T23:47:25.873Z,99906.06
2022-08-31T23:49:53.426Z,99909.59
2022-08-31T23:52:23.837Z,99913.06
2022-08-31T23:54:54.162Z,99909.59
2022-08-31T23:57:32.221Z,99914.00
